Terminal Aerodrome Forecast
Issued by NWS

Home | Current Version | Previous Version | Graphics & Text | Print | Product List | Glossary On
Versions: 1 2 3 4 5 6 7 8 9 10 11 12 13 14 15 16 17 18 19
000
FTUS43 KMPX 240311 AAB
TAFAXN
TAF AMD
KAXN 240311Z 2403/2424 14007KT P6SM VCTS OVC008CB
      TEMPO 2404/2406 2SM TSRA BR BKN020CB
     FM240600 23009KT P6SM BKN250
     FM241600 30015G22KT P6SM FEW050 SCT250=

USA.gov is the U.S. government's official web portal to all federal, state and local government web resources and services.